Terminal Aerodrome Forecast
Issued by NWS

Home | Current Version | Previous Version | Text Only | Print | Product List | Glossary On
Versions: 1 2 3 4 5 6 7 8 9 10 11 12 13 14 15 16 17 18 19 20 21 22 23 24 25 26 27 28 29 30 31 32
000
FTAK31 PANC 291504 AAA
TAFASN
TAF AMD
PASN 291504Z 2915/3012 22010KT P6SM VCFG FEW006 OVC012
      TEMPO 2916/2920 5SM BR BKN006
     FM292000 21011KT 2SM BR OVC004=

USA.gov is the U.S. government's official web portal to all federal, state and local government web resources and services.